Terminal Aerodrome Forecast
Issued by NWS

Home | Current Version | Previous Version | Text Only | Print | Product List | Glossary On
Versions: 1 2 3 4 5 6 7 8 9 10 11 12 13 14 15 16 17 18 19 20 21 22 23 24 25 26 27 28 29 30 31 32 33 34 35 36 37 38
000
FTUS43 KMKX 241423 AAA
TAFUES
TAF AMD
KUES 241423Z 2414/2512 16007KT P6SM -SHRA OVC080
     FM241900 11008KT P6SM -SHRA OVC050
     FM242200 10009KT 3SM -SHRA BR OVC040
     FM250200 13009KT 3SM BR VCSH OVC035 WS020/19045KT
     FM250500 16010KT 3SM SHRA BR OVC035 WS020/19045KT=

USA.gov is the U.S. government's official web portal to all federal, state and local government web resources and services.